createdAt,value
2019-02-28T00:00:01.108Z,981.54
2019-02-28T00:05:05.877Z,981.56
2019-02-28T00:10:01.109Z,981.54
2019-02-28T00:15:01.109Z,981.36
2019-02-28T00:20:01.086Z,981.23
2019-02-28T00:25:04.169Z,981.23
2019-02-28T00:30:01.124Z,981.13
2019-02-28T00:35:01.082Z,981.06
2019-02-28T00:40:01.118Z,981.01
2019-02-28T00:45:02.151Z,980.94
2019-02-28T00:50:01.084Z,980.78
2019-02-28T00:55:01.087Z,980.72
2019-02-28T01:00:04.947Z,980.72
2019-02-28T01:05:01.414Z,980.65
2019-02-28T01:10:01.353Z,980.55
2019-02-28T01:15:01.084Z,980.38
2019-02-28T01:20:01.438Z,980.40
2019-02-28T01:25:01.100Z,980.29
2019-02-28T01:30:01.105Z,980.24
2019-02-28T01:35:05.822Z,980.23
2019-02-28T01:40:04.527Z,980.12
2019-02-28T01:45:01.096Z,979.99
2019-02-28T01:50:01.104Z,979.88
2019-02-28T01:55:01.073Z,979.84
2019-02-28T02:00:01.131Z,979.69
2019-02-28T02:05:01.081Z,979.64
2019-02-28T02:10:01.074Z,979.58
2019-02-28T02:15:01.083Z,979.54
2019-02-28T02:20:01.120Z,979.47
2019-02-28T02:25:03.130Z,979.32
2019-02-28T02:30:01.062Z,979.20
2019-02-28T02:35:06.080Z,979.26
2019-02-28T02:40:01.172Z,979.12
2019-02-28T02:45:05.161Z,979.07
2019-02-28T02:50:01.089Z,979.05
2019-02-28T02:55:01.095Z,978.96
2019-02-28T03:00:01.114Z,978.93
2019-02-28T03:05:01.616Z,978.87
2019-02-28T03:10:01.178Z,978.89
2019-02-28T03:15:01.049Z,978.83
2019-02-28T03:20:01.074Z,978.74
2019-02-28T03:25:01.126Z,978.65
2019-02-28T03:30:01.081Z,978.57
2019-02-28T03:35:01.092Z,978.59
2019-02-28T03:40:04.527Z,978.57
2019-02-28T03:45:01.250Z,978.57
2019-02-28T03:50:01.091Z,978.50
2019-02-28T03:55:03.346Z,978.52
2019-02-28T04:00:01.106Z,978.39
2019-02-28T04:05:01.217Z,978.40
2019-02-28T04:10:01.251Z,978.31
2019-02-28T04:15:01.087Z,978.24
2019-02-28T04:20:01.094Z,978.19
2019-02-28T04:25:01.109Z,978.11
2019-02-28T04:30:06.471Z,978.10
2019-02-28T04:35:01.076Z,978.11
2019-02-28T04:40:01.118Z,978.09
2019-02-28T04:45:01.101Z,977.97
2019-02-28T04:50:01.105Z,977.97
2019-02-28T04:55:02.902Z,977.82
2019-02-28T05:00:01.070Z,977.87
2019-02-28T05:05:01.090Z,977.83
2019-02-28T05:10:01.093Z,977.80
2019-02-28T05:15:02.511Z,977.65
2019-02-28T05:20:01.110Z,977.49
2019-02-28T05:25:01.108Z,977.49
2019-02-28T05:30:01.099Z,977.52
2019-02-28T05:35:01.105Z,977.52
2019-02-28T05:40:05.446Z,977.50
2019-02-28T05:45:01.089Z,977.26
2019-02-28T05:50:01.090Z,977.34
2019-02-28T05:55:01.103Z,977.31
2019-02-28T06:00:02.762Z,977.31
2019-02-28T06:05:01.109Z,977.24
2019-02-28T06:10:01.104Z,977.23
2019-02-28T06:15:03.306Z,977.14
2019-02-28T06:20:01.071Z,977.22
2019-02-28T06:25:01.099Z,977.14
2019-02-28T06:30:01.114Z,977.16
2019-02-28T06:35:01.085Z,977.10
2019-02-28T06:40:01.074Z,977.22
2019-02-28T06:45:02.629Z,977.12
2019-02-28T06:50:01.087Z,977.17
2019-02-28T06:55:01.091Z,976.95
2019-02-28T07:00:01.481Z,977.02
2019-02-28T07:05:01.091Z,976.92
2019-02-28T07:10:01.086Z,976.87
2019-02-28T07:15:01.085Z,976.66
2019-02-28T07:20:02.053Z,976.66
2019-02-28T07:25:01.066Z,976.59
2019-02-28T07:30:01.083Z,976.52
2019-02-28T07:35:01.103Z,976.48
2019-02-28T07:40:01.082Z,976.57
2019-02-28T07:45:01.097Z,976.44
2019-02-28T07:50:01.102Z,976.41
2019-02-28T07:55:01.083Z,976.30
2019-02-28T08:00:01.100Z,976.24
2019-02-28T08:05:02.944Z,976.13
2019-02-28T08:10:01.100Z,976.16
2019-02-28T08:15:01.080Z,976.08
2019-02-28T08:20:01.116Z,975.95
2019-02-28T08:25:01.069Z,975.95
2019-02-28T08:30:01.083Z,975.83
2019-02-28T08:35:01.101Z,975.84
2019-02-28T08:40:01.118Z,975.74
2019-02-28T08:45:01.094Z,975.67
2019-02-28T08:50:01.561Z,975.57
2019-02-28T08:55:03.115Z,975.55
2019-02-28T09:00:01.068Z,975.43
2019-02-28T09:05:01.088Z,975.20
2019-02-28T09:10:01.082Z,975.12
2019-02-28T09:15:01.096Z,975.05
2019-02-28T09:20:01.514Z,975.12
2019-02-28T09:25:01.077Z,975.13
2019-02-28T09:30:01.103Z,975.10
2019-02-28T09:35:02.474Z,974.95
2019-02-28T09:40:01.096Z,974.87
2019-02-28T09:45:06.591Z,974.79
2019-02-28T09:50:01.457Z,974.66
2019-02-28T09:55:01.109Z,974.65
2019-02-28T10:00:01.096Z,974.51
2019-02-28T10:05:02.788Z,974.42
2019-02-28T10:10:01.079Z,974.40
2019-02-28T10:15:07.190Z,974.35
2019-02-28T10:20:01.088Z,974.35
2019-02-28T10:25:03.643Z,974.19
2019-02-28T10:30:01.120Z,974.24
2019-02-28T10:35:01.548Z,974.13
2019-02-28T10:40:01.118Z,974.00
2019-02-28T10:45:03.594Z,973.88
2019-02-28T10:50:01.088Z,973.87
2019-02-28T10:55:01.075Z,973.75
2019-02-28T11:00:01.114Z,973.75
2019-02-28T11:05:01.095Z,973.71
2019-02-28T11:10:02.096Z,973.48
2019-02-28T11:15:01.085Z,973.32
2019-02-28T11:20:01.505Z,973.27
2019-02-28T11:25:02.070Z,973.26
2019-02-28T11:30:01.074Z,973.03
2019-02-28T11:35:01.106Z,973.11
2019-02-28T11:40:01.093Z,973.14
2019-02-28T11:45:01.115Z,973.03
2019-02-28T11:50:04.297Z,972.80
2019-02-28T11:55:01.079Z,972.83
2019-02-28T12:00:01.529Z,972.55
2019-02-28T12:05:01.092Z,972.65
2019-02-28T12:10:01.099Z,972.52
2019-02-28T12:15:02.726Z,972.39
2019-02-28T12:20:01.061Z,972.29
2019-02-28T12:25:01.095Z,972.28
2019-02-28T12:30:01.605Z,972.24
2019-02-28T12:35:02.405Z,972.30
2019-02-28T12:40:01.120Z,972.07
2019-02-28T12:45:01.103Z,972.17
2019-02-28T12:50:01.073Z,971.95
2019-02-28T12:55:04.035Z,971.99
2019-02-28T13:00:01.066Z,971.92
2019-02-28T13:05:01.657Z,971.95
2019-02-28T13:10:01.108Z,971.84
2019-02-28T13:15:01.126Z,971.85
2019-02-28T13:20:01.468Z,971.97
2019-02-28T13:25:01.079Z,971.87
2019-02-28T13:30:01.104Z,971.70
2019-02-28T13:35:02.995Z,971.58
2019-02-28T13:40:04.297Z,971.69
2019-02-28T13:45:01.081Z,971.51
2019-02-28T13:50:01.679Z,971.46
2019-02-28T13:55:01.128Z,971.33
2019-02-28T14:00:01.126Z,971.36
2019-02-28T14:05:02.734Z,971.21
2019-02-28T14:10:01.126Z,971.16
2019-02-28T14:15:01.108Z,971.26
2019-02-28T14:20:01.100Z,971.29
2019-02-28T14:25:05.142Z,971.25
2019-02-28T14:30:01.128Z,971.11
2019-02-28T14:35:01.106Z,971.19
2019-02-28T14:40:01.121Z,971.12
2019-02-28T14:45:04.071Z,970.97
2019-02-28T14:50:01.077Z,970.99
2019-02-28T14:55:01.109Z,971.03
2019-02-28T15:00:06.154Z,970.95
2019-02-28T15:05:01.081Z,971.04
2019-02-28T15:10:01.682Z,970.97
2019-02-28T15:15:01.057Z,970.91
2019-02-28T15:20:01.070Z,971.03
2019-02-28T15:25:01.096Z,970.93
2019-02-28T15:30:01.077Z,970.86
2019-02-28T15:35:01.718Z,970.90
2019-02-28T15:40:01.095Z,970.88
2019-02-28T15:45:03.915Z,970.98
2019-02-28T15:50:01.271Z,971.04
2019-02-28T15:55:02.950Z,971.01
2019-02-28T16:00:01.293Z,971.05
2019-02-28T16:05:05.838Z,971.08
2019-02-28T16:10:01.185Z,971.09
2019-02-28T16:15:01.110Z,971.06
2019-02-28T16:20:01.105Z,971.15
2019-02-28T16:25:01.121Z,971.22
2019-02-28T16:30:01.081Z,971.24
2019-02-28T16:35:01.108Z,971.16
2019-02-28T16:40:01.363Z,971.18
2019-02-28T16:45:02.593Z,971.12
2019-02-28T16:50:01.082Z,971.13
2019-02-28T16:55:01.097Z,971.28
2019-02-28T17:00:04.000Z,971.33
2019-02-28T17:05:01.091Z,971.49
2019-02-28T17:10:01.687Z,971.55
2019-02-28T17:15:01.063Z,971.54
2019-02-28T17:20:02.945Z,971.57
2019-02-28T17:25:01.244Z,971.71
2019-02-28T17:30:01.725Z,971.73
2019-02-28T17:35:01.106Z,971.85
2019-02-28T17:40:01.098Z,971.87
2019-02-28T17:45:01.129Z,971.89
2019-02-28T17:50:05.678Z,971.91
2019-02-28T17:55:01.095Z,971.94
2019-02-28T18:00:01.101Z,971.98
2019-02-28T18:05:01.075Z,971.94
2019-02-28T18:10:01.139Z,972.04
2019-02-28T18:15:01.153Z,972.02
2019-02-28T18:20:01.094Z,971.90
2019-02-28T18:25:01.138Z,971.95
2019-02-28T18:30:01.144Z,972.04
2019-02-28T18:35:01.132Z,972.08
2019-02-28T18:40:01.080Z,972.02
2019-02-28T18:45:01.168Z,972.06
2019-02-28T18:50:01.061Z,972.12
2019-02-28T18:55:05.916Z,972.13
2019-02-28T19:00:01.096Z,972.12
2019-02-28T19:05:01.049Z,972.18
2019-02-28T19:10:01.116Z,972.17
2019-02-28T19:15:01.097Z,972.22
2019-02-28T19:20:01.070Z,972.22
2019-02-28T19:25:01.124Z,972.32
2019-02-28T19:30:01.108Z,972.13
2019-02-28T19:35:01.058Z,972.29
2019-02-28T19:40:01.527Z,972.36
2019-02-28T19:45:01.107Z,972.49
2019-02-28T19:50:01.099Z,972.47
2019-02-28T19:55:01.077Z,972.59
2019-02-28T20:00:01.148Z,972.60
2019-02-28T20:05:01.089Z,972.55
2019-02-28T20:10:01.100Z,972.52
2019-02-28T20:15:01.586Z,972.54
2019-02-28T20:20:01.121Z,972.58
2019-02-28T20:25:01.063Z,972.57
2019-02-28T20:30:01.060Z,972.51
2019-02-28T20:35:01.077Z,972.54
2019-02-28T20:40:01.111Z,972.53
2019-02-28T20:45:01.129Z,972.55
2019-02-28T20:50:01.101Z,972.62
2019-02-28T20:55:01.755Z,972.63
2019-02-28T21:00:01.601Z,972.61
2019-02-28T21:05:01.087Z,972.62
2019-02-28T21:10:01.109Z,972.51
2019-02-28T21:15:01.520Z,972.55
2019-02-28T21:25:01.093Z,972.72
2019-02-28T21:30:01.085Z,972.75
2019-02-28T21:35:01.646Z,972.62
2019-02-28T21:40:01.473Z,972.77
2019-02-28T21:45:01.113Z,972.77
2019-02-28T21:50:01.095Z,972.74
2019-02-28T21:55:01.075Z,972.89
2019-02-28T22:00:01.106Z,973.01
2019-02-28T22:05:01.560Z,972.86
2019-02-28T22:10:01.096Z,973.08
2019-02-28T22:15:01.101Z,973.04
2019-02-28T22:20:01.105Z,973.08
2019-02-28T22:30:01.127Z,973.07
2019-02-28T22:35:01.100Z,973.14
2019-02-28T22:40:01.121Z,973.13
2019-02-28T22:45:01.098Z,973.22
2019-02-28T22:50:01.103Z,973.31
2019-02-28T22:55:03.061Z,973.20
2019-02-28T23:00:01.096Z,973.23
2019-02-28T23:05:01.051Z,973.24
2019-02-28T23:10:01.099Z,973.21
2019-02-28T23:15:01.088Z,972.97
2019-02-28T23:20:01.074Z,973.13
2019-02-28T23:25:01.627Z,973.17
2019-02-28T23:30:01.097Z,973.17
2019-02-28T23:35:01.087Z,973.24
2019-02-28T23:40:01.069Z,973.32
2019-02-28T23:45:01.098Z,973.31
2019-02-28T23:50:01.120Z,973.17
2019-02-28T23:55:01.084Z,973.25
